sensor_id;sensor_type;location;lat;lon;timestamp;temperature;humidity
74513;DHT22;62992;52.052;8.550;2023-02-01T00:02:15;4.20;99.90
74513;DHT22;62992;52.052;8.550;2023-02-01T00:04:59;4.30;99.90
74513;DHT22;62992;52.052;8.550;2023-02-01T00:07:47;4.30;99.90
74513;DHT22;62992;52.052;8.550;2023-02-01T00:10:31;4.30;99.90
74513;DHT22;62992;52.052;8.550;2023-02-01T00:13:15;4.30;99.90
74513;DHT22;62992;52.052;8.550;2023-02-01T00:16:08;4.30;99.90
74513;DHT22;62992;52.052;8.550;2023-02-01T00:19:01;4.30;99.90
74513;DHT22;62992;52.052;8.550;2023-02-01T00:21:46;4.30;99.90
74513;DHT22;62992;52.052;8.550;2023-02-01T00:24:30;4.30;99.90
74513;DHT22;62992;52.052;8.550;2023-02-01T00:27:14;4.30;99.90
74513;DHT22;62992;52.052;8.550;2023-02-01T00:30:01;4.30;99.90
74513;DHT22;62992;52.052;8.550;2023-02-01T00:32:46;4.20;99.90
74513;DHT22;62992;52.052;8.550;2023-02-01T00:35:30;4.20;99.90
74513;DHT22;62992;52.052;8.550;2023-02-01T00:38:13;4.30;99.90
74513;DHT22;62992;52.052;8.550;2023-02-01T00:41:11;4.30;99.90
74513;DHT22;62992;52.052;8.550;2023-02-01T00:43:56;4.30;99.90
74513;DHT22;62992;52.052;8.550;2023-02-01T00:46:40;4.30;99.90
74513;DHT22;62992;52.052;8.550;2023-02-01T00:49:24;4.30;99.90
74513;DHT22;62992;52.052;8.550;2023-02-01T00:52:08;4.30;99.90
74513;DHT22;62992;52.052;8.550;2023-02-01T00:54:52;4.20;99.90
74513;DHT22;62992;52.052;8.550;2023-02-01T00:57:36;4.20;99.90
74513;DHT22;62992;52.052;8.550;2023-02-01T01:00:20;4.10;99.90
74513;DHT22;62992;52.052;8.550;2023-02-01T01:03:04;4.20;99.90
74513;DHT22;62992;52.052;8.550;2023-02-01T01:06:04;4.20;99.90
74513;DHT22;62992;52.052;8.550;2023-02-01T01:08:51;4.20;99.90
74513;DHT22;62992;52.052;8.550;2023-02-01T01:11:37;4.20;99.90
74513;DHT22;62992;52.052;8.550;2023-02-01T01:14:22;4.30;99.90
74513;DHT22;62992;52.052;8.550;2023-02-01T01:17:06;4.30;99.90
74513;DHT22;62992;52.052;8.550;2023-02-01T01:19:50;4.30;99.90
74513;DHT22;62992;52.052;8.550;2023-02-01T01:22:34;4.30;99.90
74513;DHT22;62992;52.052;8.550;2023-02-01T01:25:18;4.30;99.90
74513;DHT22;62992;52.052;8.550;2023-02-01T01:28:05;4.30;99.90
74513;DHT22;62992;52.052;8.550;2023-02-01T01:30:49;4.30;99.90
74513;DHT22;62992;52.052;8.550;2023-02-01T01:33:33;4.30;99.90
74513;DHT22;62992;52.052;8.550;2023-02-01T01:36:17;4.30;99.90
74513;DHT22;62992;52.052;8.550;2023-02-01T01:39:02;4.40;99.90
74513;DHT22;62992;52.052;8.550;2023-02-01T01:41:46;4.30;99.90
74513;DHT22;62992;52.052;8.550;2023-02-01T01:44:56;4.30;99.90
74513;DHT22;62992;52.052;8.550;2023-02-01T01:47:44;4.30;99.90
74513;DHT22;62992;52.052;8.550;2023-02-01T01:50:42;4.30;99.90
74513;DHT22;62992;52.052;8.550;2023-02-01T01:53:32;4.30;99.90
74513;DHT22;62992;52.052;8.550;2023-02-01T01:56:17;4.20;99.90
74513;DHT22;62992;52.052;8.550;2023-02-01T01:59:02;4.20;99.90
74513;DHT22;62992;52.052;8.550;2023-02-01T02:01:46;4.30;99.90
74513;DHT22;62992;52.052;8.550;2023-02-01T02:04:32;4.40;99.90
74513;DHT22;62992;52.052;8.550;2023-02-01T02:07:25;4.40;99.90
74513;DHT22;62992;52.052;8.550;2023-02-01T02:10:12;4.40;99.90
74513;DHT22;62992;52.052;8.550;2023-02-01T02:12:57;4.40;99.90
74513;DHT22;62992;52.052;8.550;2023-02-01T02:15:46;4.50;99.90
74513;DHT22;62992;52.052;8.550;2023-02-01T02:18:57;4.50;99.90
74513;DHT22;62992;52.052;8.550;2023-02-01T02:29:23;4.50;99.90
74513;DHT22;62992;52.052;8.550;2023-02-01T02:32:08;4.50;99.90
74513;DHT22;62992;52.052;8.550;2023-02-01T02:35:14;4.60;99.90
74513;DHT22;62992;52.052;8.550;2023-02-01T02:51:43;4.70;99.90
74513;DHT22;62992;52.052;8.550;2023-02-01T02:54:49;4.70;99.90
74513;DHT22;62992;52.052;8.550;2023-02-01T02:57:40;4.70;99.90
74513;DHT22;62992;52.052;8.550;2023-02-01T03:00:45;4.70;99.90
74513;DHT22;62992;52.052;8.550;2023-02-01T03:03:49;4.70;99.90
74513;DHT22;62992;52.052;8.550;2023-02-01T03:06:53;4.80;99.90
74513;DHT22;62992;52.052;8.550;2023-02-01T03:09:37;4.80;99.90
74513;DHT22;62992;52.052;8.550;2023-02-01T03:12:24;4.80;99.90
74513;DHT22;62992;52.052;8.550;2023-02-01T03:15:36;4.80;99.90
74513;DHT22;62992;52.052;8.550;2023-02-01T03:21:14;4.80;99.90
74513;DHT22;62992;52.052;8.550;2023-02-01T03:24:04;4.90;99.90
74513;DHT22;62992;52.052;8.550;2023-02-01T03:26:54;4.90;99.90
74513;DHT22;62992;52.052;8.550;2023-02-01T03:30:02;4.90;99.90
74513;DHT22;62992;52.052;8.550;2023-02-01T03:32:52;4.90;99.90
74513;DHT22;62992;52.052;8.550;2023-02-01T03:39:31;4.90;99.90
74513;DHT22;62992;52.052;8.550;2023-02-01T03:42:26;4.90;99.90
74513;DHT22;62992;52.052;8.550;2023-02-01T03:45:17;4.90;99.90
74513;DHT22;62992;52.052;8.550;2023-02-01T03:48:03;5.00;99.90
74513;DHT22;62992;52.052;8.550;2023-02-01T03:50:50;5.00;99.90
74513;DHT22;62992;52.052;8.550;2023-02-01T03:53:36;5.00;99.90
74513;DHT22;62992;52.052;8.550;2023-02-01T03:56:21;5.00;99.90
74513;DHT22;62992;52.052;8.550;2023-02-01T03:59:07;5.00;99.90
74513;DHT22;62992;52.052;8.550;2023-02-01T04:01:52;5.00;99.90
74513;DHT22;62992;52.052;8.550;2023-02-01T04:04:37;5.00;99.90
74513;DHT22;62992;52.052;8.550;2023-02-01T04:07:21;5.00;99.90
74513;DHT22;62992;52.052;8.550;2023-02-01T04:10:06;5.10;99.90
74513;DHT22;62992;52.052;8.550;2023-02-01T04:12:50;5.10;99.90
74513;DHT22;62992;52.052;8.550;2023-02-01T04:15:34;5.10;99.90
74513;DHT22;62992;52.052;8.550;2023-02-01T04:18:18;5.10;99.90
74513;DHT22;62992;52.052;8.550;2023-02-01T04:21:03;5.00;99.90
74513;DHT22;62992;52.052;8.550;2023-02-01T04:23:47;5.10;99.90
74513;DHT22;62992;52.052;8.550;2023-02-01T04:26:31;5.10;99.90
74513;DHT22;62992;52.052;8.550;2023-02-01T04:29:15;5.10;99.90
74513;DHT22;62992;52.052;8.550;2023-02-01T04:31:59;5.10;99.90
74513;DHT22;62992;52.052;8.550;2023-02-01T04:34:43;5.10;99.90
74513;DHT22;62992;52.052;8.550;2023-02-01T04:37:28;5.10;99.90
74513;DHT22;62992;52.052;8.550;2023-02-01T04:40:12;5.20;99.90
74513;DHT22;62992;52.052;8.550;2023-02-01T04:42:56;5.10;99.90
74513;DHT22;62992;52.052;8.550;2023-02-01T04:45:41;5.10;99.90
74513;DHT22;62992;52.052;8.550;2023-02-01T04:48:25;5.10;99.90
74513;DHT22;62992;52.052;8.550;2023-02-01T04:51:10;5.00;99.90
74513;DHT22;62992;52.052;8.550;2023-02-01T04:53:54;5.00;99.90
74513;DHT22;62992;52.052;8.550;2023-02-01T04:56:40;4.90;99.90
74513;DHT22;62992;52.052;8.550;2023-02-01T04:59:25;4.80;99.90
74513;DHT22;62992;52.052;8.550;2023-02-01T05:02:09;4.80;99.90
74513;DHT22;62992;52.052;8.550;2023-02-01T05:04:53;4.80;99.90
74513;DHT22;62992;52.052;8.550;2023-02-01T05:07:39;4.70;99.90
74513;DHT22;62992;52.052;8.550;2023-02-01T05:10:24;4.70;99.90
74513;DHT22;62992;52.052;8.550;2023-02-01T05:13:09;4.70;99.90
74513;DHT22;62992;52.052;8.550;2023-02-01T05:16:12;4.70;99.90
74513;DHT22;62992;52.052;8.550;2023-02-01T05:18:56;4.70;99.90
74513;DHT22;62992;52.052;8.550;2023-02-01T05:21:40;4.70;99.90
74513;DHT22;62992;52.052;8.550;2023-02-01T05:24:24;4.60;99.90
74513;DHT22;62992;52.052;8.550;2023-02-01T05:27:10;4.70;99.90
74513;DHT22;62992;52.052;8.550;2023-02-01T05:29:55;4.70;99.90
74513;DHT22;62992;52.052;8.550;2023-02-01T05:32:38;4.60;99.90
74513;DHT22;62992;52.052;8.550;2023-02-01T05:35:23;4.70;99.90
74513;DHT22;62992;52.052;8.550;2023-02-01T05:38:07;4.70;99.90
74513;DHT22;62992;52.052;8.550;2023-02-01T05:40:51;4.70;99.90
74513;DHT22;62992;52.052;8.550;2023-02-01T05:43:35;4.70;99.90
74513;DHT22;62992;52.052;8.550;2023-02-01T05:46:19;4.70;99.90
74513;DHT22;62992;52.052;8.550;2023-02-01T05:49:04;4.60;99.90
74513;DHT22;62992;52.052;8.550;2023-02-01T05:51:48;4.70;99.90
74513;DHT22;62992;52.052;8.550;2023-02-01T05:54:32;4.80;99.90
74513;DHT22;62992;52.052;8.550;2023-02-01T05:57:16;4.80;99.90
74513;DHT22;62992;52.052;8.550;2023-02-01T06:00:01;4.70;99.90
74513;DHT22;62992;52.052;8.550;2023-02-01T06:02:45;4.80;99.90
74513;DHT22;62992;52.052;8.550;2023-02-01T06:05:29;4.80;99.90
74513;DHT22;62992;52.052;8.550;2023-02-01T06:08:14;4.80;99.90
74513;DHT22;62992;52.052;8.550;2023-02-01T06:11:03;4.80;99.90
74513;DHT22;62992;52.052;8.550;2023-02-01T06:13:48;4.80;99.90
74513;DHT22;62992;52.052;8.550;2023-02-01T06:16:32;4.80;99.90
74513;DHT22;62992;52.052;8.550;2023-02-01T06:19:16;4.80;99.90
74513;DHT22;62992;52.052;8.550;2023-02-01T06:22:00;4.80;99.90
74513;DHT22;62992;52.052;8.550;2023-02-01T06:24:45;4.90;99.90
74513;DHT22;62992;52.052;8.550;2023-02-01T06:27:29;4.90;99.90
74513;DHT22;62992;52.052;8.550;2023-02-01T06:30:13;4.90;99.90
74513;DHT22;62992;52.052;8.550;2023-02-01T06:32:58;4.80;99.90
74513;DHT22;62992;52.052;8.550;2023-02-01T06:35:43;4.90;99.90
74513;DHT22;62992;52.052;8.550;2023-02-01T06:38:31;4.90;99.90
74513;DHT22;62992;52.052;8.550;2023-02-01T06:41:18;4.90;99.90
74513;DHT22;62992;52.052;8.550;2023-02-01T06:44:04;5.00;99.90
74513;DHT22;62992;52.052;8.550;2023-02-01T06:46:48;5.00;99.90
74513;DHT22;62992;52.052;8.550;2023-02-01T06:49:33;5.00;99.90
74513;DHT22;62992;52.052;8.550;2023-02-01T06:52:17;5.00;99.90
74513;DHT22;62992;52.052;8.550;2023-02-01T06:55:01;5.00;99.90
74513;DHT22;62992;52.052;8.550;2023-02-01T06:57:45;5.00;99.90
74513;DHT22;62992;52.052;8.550;2023-02-01T07:00:29;5.00;99.90
74513;DHT22;62992;52.052;8.550;2023-02-01T07:03:14;5.00;99.90
74513;DHT22;62992;52.052;8.550;2023-02-01T07:05:58;5.00;99.90
74513;DHT22;62992;52.052;8.550;2023-02-01T07:08:43;5.00;99.90
74513;DHT22;62992;52.052;8.550;2023-02-01T07:11:27;5.00;99.90
74513;DHT22;62992;52.052;8.550;2023-02-01T07:14:12;5.10;99.90
74513;DHT22;62992;52.052;8.550;2023-02-01T07:16:56;5.10;99.90
74513;DHT22;62992;52.052;8.550;2023-02-01T07:19:40;5.10;99.90
74513;DHT22;62992;52.052;8.550;2023-02-01T07:22:24;5.10;99.90
74513;DHT22;62992;52.052;8.550;2023-02-01T07:25:08;5.10;99.90
74513;DHT22;62992;52.052;8.550;2023-02-01T07:27:53;5.20;99.90
74513;DHT22;62992;52.052;8.550;2023-02-01T07:30:37;5.10;99.90
74513;DHT22;62992;52.052;8.550;2023-02-01T07:33:23;5.20;99.90
74513;DHT22;62992;52.052;8.550;2023-02-01T07:36:14;5.20;99.90
74513;DHT22;62992;52.052;8.550;2023-02-01T07:38:59;5.30;99.90
74513;DHT22;62992;52.052;8.550;2023-02-01T07:41:43;5.30;99.90
74513;DHT22;62992;52.052;8.550;2023-02-01T07:44:27;5.30;99.90
74513;DHT22;62992;52.052;8.550;2023-02-01T07:47:11;5.30;99.90
74513;DHT22;62992;52.052;8.550;2023-02-01T07:49:56;5.30;99.90
74513;DHT22;62992;52.052;8.550;2023-02-01T07:52:40;5.30;99.90
74513;DHT22;62992;52.052;8.550;2023-02-01T07:55:24;5.40;99.90
74513;DHT22;62992;52.052;8.550;2023-02-01T07:58:08;5.40;99.90
74513;DHT22;62992;52.052;8.550;2023-02-01T08:00:52;5.40;99.90
74513;DHT22;62992;52.052;8.550;2023-02-01T08:03:57;5.50;99.90
74513;DHT22;62992;52.052;8.550;2023-02-01T08:06:45;5.50;99.90
74513;DHT22;62992;52.052;8.550;2023-02-01T08:09:29;5.60;99.90
74513;DHT22;62992;52.052;8.550;2023-02-01T08:12:14;5.50;99.90
74513;DHT22;62992;52.052;8.550;2023-02-01T08:14:59;5.50;99.90
74513;DHT22;62992;52.052;8.550;2023-02-01T08:17:52;5.50;99.90
74513;DHT22;62992;52.052;8.550;2023-02-01T08:20:38;5.60;99.90
74513;DHT22;62992;52.052;8.550;2023-02-01T08:23:25;5.70;99.90
74513;DHT22;62992;52.052;8.550;2023-02-01T08:26:15;5.80;99.90
74513;DHT22;62992;52.052;8.550;2023-02-01T08:29:02;5.70;99.90
74513;DHT22;62992;52.052;8.550;2023-02-01T08:31:47;5.70;99.90
74513;DHT22;62992;52.052;8.550;2023-02-01T08:34:31;5.70;99.90
74513;DHT22;62992;52.052;8.550;2023-02-01T08:37:15;5.70;99.90
74513;DHT22;62992;52.052;8.550;2023-02-01T08:39:59;5.70;99.90
74513;DHT22;62992;52.052;8.550;2023-02-01T08:42:43;5.70;99.90
74513;DHT22;62992;52.052;8.550;2023-02-01T08:45:36;5.70;99.90
74513;DHT22;62992;52.052;8.550;2023-02-01T08:48:21;5.80;99.90
74513;DHT22;62992;52.052;8.550;2023-02-01T08:51:07;6.50;99.90
74513;DHT22;62992;52.052;8.550;2023-02-01T08:53:52;6.50;99.90
74513;DHT22;62992;52.052;8.550;2023-02-01T08:56:36;6.40;99.90
74513;DHT22;62992;52.052;8.550;2023-02-01T08:59:20;6.40;99.90
74513;DHT22;62992;52.052;8.550;2023-02-01T09:02:04;6.20;99.90
74513;DHT22;62992;52.052;8.550;2023-02-01T09:04:48;6.20;99.90
74513;DHT22;62992;52.052;8.550;2023-02-01T09:07:33;6.10;99.90
74513;DHT22;62992;52.052;8.550;2023-02-01T09:10:17;6.20;99.90
74513;DHT22;62992;52.052;8.550;2023-02-01T09:13:02;6.20;99.90
74513;DHT22;62992;52.052;8.550;2023-02-01T09:15:47;6.40;99.90
74513;DHT22;62992;52.052;8.550;2023-02-01T09:18:31;6.50;99.90
74513;DHT22;62992;52.052;8.550;2023-02-01T09:21:15;6.50;99.90
74513;DHT22;62992;52.052;8.550;2023-02-01T09:23:59;6.30;99.90
74513;DHT22;62992;52.052;8.550;2023-02-01T09:26:44;6.30;99.90
74513;DHT22;62992;52.052;8.550;2023-02-01T09:29:28;6.30;99.90
74513;DHT22;62992;52.052;8.550;2023-02-01T09:32:12;6.20;99.90
74513;DHT22;62992;52.052;8.550;2023-02-01T09:34:57;6.10;99.90
74513;DHT22;62992;52.052;8.550;2023-02-01T09:37:41;6.10;99.90
74513;DHT22;62992;52.052;8.550;2023-02-01T09:40:25;6.20;99.90
74513;DHT22;62992;52.052;8.550;2023-02-01T09:46:29;6.20;99.90
74513;DHT22;62992;52.052;8.550;2023-02-01T09:49:19;6.20;99.90
74513;DHT22;62992;52.052;8.550;2023-02-01T09:52:07;6.10;99.90
74513;DHT22;62992;52.052;8.550;2023-02-01T09:54:55;6.10;99.90
74513;DHT22;62992;52.052;8.550;2023-02-01T09:58:04;6.10;99.90
74513;DHT22;62992;52.052;8.550;2023-02-01T10:00:55;6.20;99.90
74513;DHT22;62992;52.052;8.550;2023-02-01T10:03:40;6.30;99.90
74513;DHT22;62992;52.052;8.550;2023-02-01T10:16:00;6.60;99.90
74513;DHT22;62992;52.052;8.550;2023-02-01T10:19:10;6.80;99.90
74513;DHT22;62992;52.052;8.550;2023-02-01T10:22:04;6.60;99.90
74513;DHT22;62992;52.052;8.550;2023-02-01T10:25:03;6.60;99.90
74513;DHT22;62992;52.052;8.550;2023-02-01T10:27:49;6.60;99.90
74513;DHT22;62992;52.052;8.550;2023-02-01T10:30:44;6.60;99.90
74513;DHT22;62992;52.052;8.550;2023-02-01T10:33:41;6.50;99.90
74513;DHT22;62992;52.052;8.550;2023-02-01T10:36:40;6.50;99.90
74513;DHT22;62992;52.052;8.550;2023-02-01T10:39:25;6.50;99.90
74513;DHT22;62992;52.052;8.550;2023-02-01T10:42:10;6.40;99.90
74513;DHT22;62992;52.052;8.550;2023-02-01T10:44:59;6.40;99.90
74513;DHT22;62992;52.052;8.550;2023-02-01T10:47:45;6.40;99.90
74513;DHT22;62992;52.052;8.550;2023-02-01T10:50:35;6.50;99.90
74513;DHT22;62992;52.052;8.550;2023-02-01T10:53:39;6.40;99.90
74513;DHT22;62992;52.052;8.550;2023-02-01T10:56:28;6.50;99.90
74513;DHT22;62992;52.052;8.550;2023-02-01T10:59:24;6.60;99.90
74513;DHT22;62992;52.052;8.550;2023-02-01T11:02:31;6.70;99.90
74513;DHT22;62992;52.052;8.550;2023-02-01T11:05:16;6.60;99.90
74513;DHT22;62992;52.052;8.550;2023-02-01T11:08:02;6.60;99.90
74513;DHT22;62992;52.052;8.550;2023-02-01T11:10:46;6.50;99.90
74513;DHT22;62992;52.052;8.550;2023-02-01T11:13:33;6.50;99.90
74513;DHT22;62992;52.052;8.550;2023-02-01T11:16:20;6.50;99.90
74513;DHT22;62992;52.052;8.550;2023-02-01T11:19:05;6.50;99.90
74513;DHT22;62992;52.052;8.550;2023-02-01T11:21:54;6.60;99.90
74513;DHT22;62992;52.052;8.550;2023-02-01T11:24:40;6.60;99.90
74513;DHT22;62992;52.052;8.550;2023-02-01T11:27:28;6.60;99.90
74513;DHT22;62992;52.052;8.550;2023-02-01T11:30:18;6.60;99.90
74513;DHT22;62992;52.052;8.550;2023-02-01T11:33:12;6.70;99.90
74513;DHT22;62992;52.052;8.550;2023-02-01T11:35:58;7.00;99.90
74513;DHT22;62992;52.052;8.550;2023-02-01T11:39:33;6.90;99.90
74513;DHT22;62992;52.052;8.550;2023-02-01T11:42:20;6.70;99.90
74513;DHT22;62992;52.052;8.550;2023-02-01T11:45:40;6.60;99.90
74513;DHT22;62992;52.052;8.550;2023-02-01T11:48:26;6.50;99.90
74513;DHT22;62992;52.052;8.550;2023-02-01T11:54:02;6.50;99.90
74513;DHT22;62992;52.052;8.550;2023-02-01T12:00:46;6.30;99.90
74513;DHT22;62992;52.052;8.550;2023-02-01T12:10:21;6.10;99.90
74513;DHT22;62992;52.052;8.550;2023-02-01T12:25:53;5.70;99.90
74513;DHT22;62992;52.052;8.550;2023-02-01T12:34:57;5.60;99.90
74513;DHT22;62992;52.052;8.550;2023-02-01T12:44:24;5.60;99.90
74513;DHT22;62992;52.052;8.550;2023-02-01T12:47:16;5.60;99.90
74513;DHT22;62992;52.052;8.550;2023-02-01T12:50:03;5.60;99.90
74513;DHT22;62992;52.052;8.550;2023-02-01T12:52:53;5.50;99.90
74513;DHT22;62992;52.052;8.550;2023-02-01T12:55:49;5.40;99.90
74513;DHT22;62992;52.052;8.550;2023-02-01T12:58:48;5.40;99.90
74513;DHT22;62992;52.052;8.550;2023-02-01T13:01:42;5.40;99.90
74513;DHT22;62992;52.052;8.550;2023-02-01T13:04:36;5.30;99.90
74513;DHT22;62992;52.052;8.550;2023-02-01T13:07:26;5.30;99.90
74513;DHT22;62992;52.052;8.550;2023-02-01T13:13:22;5.40;99.90
74513;DHT22;62992;52.052;8.550;2023-02-01T13:16:28;5.40;99.90
74513;DHT22;62992;52.052;8.550;2023-02-01T13:19:22;5.40;99.90
74513;DHT22;62992;52.052;8.550;2023-02-01T13:22:13;5.50;99.90
74513;DHT22;62992;52.052;8.550;2023-02-01T13:28:04;5.60;99.90
74513;DHT22;62992;52.052;8.550;2023-02-01T13:30:57;5.60;99.90
74513;DHT22;62992;52.052;8.550;2023-02-01T13:36:45;5.50;99.90
74513;DHT22;62992;52.052;8.550;2023-02-01T13:39:55;5.50;99.90
74513;DHT22;62992;52.052;8.550;2023-02-01T13:45:29;5.70;99.90
74513;DHT22;62992;52.052;8.550;2023-02-01T13:48:23;5.70;99.90
74513;DHT22;62992;52.052;8.550;2023-02-01T13:51:08;5.70;99.90
74513;DHT22;62992;52.052;8.550;2023-02-01T13:53:52;5.80;99.90
74513;DHT22;62992;52.052;8.550;2023-02-01T13:56:43;5.80;99.90
74513;DHT22;62992;52.052;8.550;2023-02-01T14:08:21;5.90;99.90
74513;DHT22;62992;52.052;8.550;2023-02-01T14:11:06;5.90;99.90
74513;DHT22;62992;52.052;8.550;2023-02-01T14:13:50;5.90;99.90
74513;DHT22;62992;52.052;8.550;2023-02-01T14:16:34;5.80;99.90
74513;DHT22;62992;52.052;8.550;2023-02-01T14:19:29;5.80;99.90
74513;DHT22;62992;52.052;8.550;2023-02-01T14:25:16;5.80;99.90
74513;DHT22;62992;52.052;8.550;2023-02-01T14:28:01;5.60;99.90
74513;DHT22;62992;52.052;8.550;2023-02-01T14:30:54;5.50;99.90
74513;DHT22;62992;52.052;8.550;2023-02-01T14:33:41;5.40;99.90
74513;DHT22;62992;52.052;8.550;2023-02-01T14:36:40;5.40;99.90
74513;DHT22;62992;52.052;8.550;2023-02-01T14:42:46;5.20;99.90
74513;DHT22;62992;52.052;8.550;2023-02-01T14:50:59;5.10;99.90
74513;DHT22;62992;52.052;8.550;2023-02-01T14:53:45;5.20;99.90
74513;DHT22;62992;52.052;8.550;2023-02-01T14:56:31;5.10;99.90
74513;DHT22;62992;52.052;8.550;2023-02-01T14:59:16;5.00;99.90
74513;DHT22;62992;52.052;8.550;2023-02-01T15:02:21;5.00;99.90
74513;DHT22;62992;52.052;8.550;2023-02-01T15:05:38;5.10;99.90
74513;DHT22;62992;52.052;8.550;2023-02-01T15:08:30;5.30;99.90
74513;DHT22;62992;52.052;8.550;2023-02-01T15:11:16;5.40;99.90
74513;DHT22;62992;52.052;8.550;2023-02-01T15:14:00;5.40;99.90
74513;DHT22;62992;52.052;8.550;2023-02-01T15:16:44;5.40;99.90
74513;DHT22;62992;52.052;8.550;2023-02-01T15:19:33;5.40;99.90
74513;DHT22;62992;52.052;8.550;2023-02-01T15:22:19;5.50;99.90
74513;DHT22;62992;52.052;8.550;2023-02-01T15:25:03;5.50;99.90
74513;DHT22;62992;52.052;8.550;2023-02-01T15:27:47;5.60;99.90
74513;DHT22;62992;52.052;8.550;2023-02-01T15:30:34;5.60;99.90
74513;DHT22;62992;52.052;8.550;2023-02-01T15:33:19;5.60;99.90
74513;DHT22;62992;52.052;8.550;2023-02-01T15:36:10;5.60;99.90
74513;DHT22;62992;52.052;8.550;2023-02-01T15:39:22;5.60;99.90
74513;DHT22;62992;52.052;8.550;2023-02-01T15:42:17;5.60;99.90
74513;DHT22;62992;52.052;8.550;2023-02-01T15:45:04;5.60;99.90
74513;DHT22;62992;52.052;8.550;2023-02-01T15:47:50;5.60;99.90
74513;DHT22;62992;52.052;8.550;2023-02-01T15:50:39;5.60;99.90
74513;DHT22;62992;52.052;8.550;2023-02-01T15:53:25;5.60;99.90
74513;DHT22;62992;52.052;8.550;2023-02-01T15:56:15;5.60;99.90
74513;DHT22;62992;52.052;8.550;2023-02-01T15:59:02;5.50;99.90
74513;DHT22;62992;52.052;8.550;2023-02-01T16:01:48;5.50;99.90
74513;DHT22;62992;52.052;8.550;2023-02-01T16:04:32;5.40;99.90
74513;DHT22;62992;52.052;8.550;2023-02-01T16:07:29;5.50;99.90
74513;DHT22;62992;52.052;8.550;2023-02-01T16:10:41;5.40;99.90
74513;DHT22;62992;52.052;8.550;2023-02-01T16:13:25;5.50;99.90
74513;DHT22;62992;52.052;8.550;2023-02-01T16:16:09;5.50;99.90
74513;DHT22;62992;52.052;8.550;2023-02-01T16:18:57;5.50;99.90
74513;DHT22;62992;52.052;8.550;2023-02-01T16:21:41;5.50;99.90
74513;DHT22;62992;52.052;8.550;2023-02-01T16:24:25;5.50;99.90
74513;DHT22;62992;52.052;8.550;2023-02-01T16:27:09;5.40;99.90
74513;DHT22;62992;52.052;8.550;2023-02-01T16:29:54;5.50;99.90
74513;DHT22;62992;52.052;8.550;2023-02-01T16:32:39;5.60;99.90
74513;DHT22;62992;52.052;8.550;2023-02-01T16:35:26;5.70;99.90
74513;DHT22;62992;52.052;8.550;2023-02-01T16:38:12;5.60;99.90
74513;DHT22;62992;52.052;8.550;2023-02-01T16:40:57;5.50;99.90
74513;DHT22;62992;52.052;8.550;2023-02-01T16:43:42;5.60;99.90
74513;DHT22;62992;52.052;8.550;2023-02-01T16:46:35;5.70;99.90
74513;DHT22;62992;52.052;8.550;2023-02-01T16:49:24;5.80;99.90
74513;DHT22;62992;52.052;8.550;2023-02-01T16:52:15;5.70;99.90
74513;DHT22;62992;52.052;8.550;2023-02-01T16:54:59;5.70;99.90
74513;DHT22;62992;52.052;8.550;2023-02-01T16:57:43;5.70;99.90
74513;DHT22;62992;52.052;8.550;2023-02-01T17:00:28;5.70;99.90
74513;DHT22;62992;52.052;8.550;2023-02-01T17:03:15;5.60;99.90
74513;DHT22;62992;52.052;8.550;2023-02-01T17:06:00;5.50;99.90
74513;DHT22;62992;52.052;8.550;2023-02-01T17:08:47;5.50;99.90
74513;DHT22;62992;52.052;8.550;2023-02-01T17:11:33;5.50;99.90
74513;DHT22;62992;52.052;8.550;2023-02-01T17:14:20;5.50;99.90
74513;DHT22;62992;52.052;8.550;2023-02-01T17:17:05;5.60;99.90
74513;DHT22;62992;52.052;8.550;2023-02-01T17:19:52;5.50;99.90
74513;DHT22;62992;52.052;8.550;2023-02-01T17:22:37;5.40;99.90
74513;DHT22;62992;52.052;8.550;2023-02-01T17:25:22;5.40;99.90
74513;DHT22;62992;52.052;8.550;2023-02-01T17:28:06;5.30;99.90
74513;DHT22;62992;52.052;8.550;2023-02-01T17:30:51;5.30;99.90
74513;DHT22;62992;52.052;8.550;2023-02-01T17:33:36;5.30;99.90
74513;DHT22;62992;52.052;8.550;2023-02-01T17:36:20;5.20;99.90
74513;DHT22;62992;52.052;8.550;2023-02-01T17:39:05;5.30;99.90
74513;DHT22;62992;52.052;8.550;2023-02-01T17:41:49;5.30;99.90
74513;DHT22;62992;52.052;8.550;2023-02-01T17:44:33;5.30;99.90
74513;DHT22;62992;52.052;8.550;2023-02-01T17:47:17;5.30;99.90
74513;DHT22;62992;52.052;8.550;2023-02-01T17:50:01;5.20;99.90
74513;DHT22;62992;52.052;8.550;2023-02-01T17:52:45;5.30;99.90
74513;DHT22;62992;52.052;8.550;2023-02-01T17:55:33;5.30;99.90
74513;DHT22;62992;52.052;8.550;2023-02-01T17:58:18;5.20;99.90
74513;DHT22;62992;52.052;8.550;2023-02-01T18:01:03;5.20;99.90
74513;DHT22;62992;52.052;8.550;2023-02-01T18:03:47;5.20;99.90
74513;DHT22;62992;52.052;8.550;2023-02-01T18:06:34;5.20;99.90
74513;DHT22;62992;52.052;8.550;2023-02-01T18:09:18;5.20;99.90
74513;DHT22;62992;52.052;8.550;2023-02-01T18:12:06;5.20;99.90
74513;DHT22;62992;52.052;8.550;2023-02-01T18:14:54;5.30;99.90
74513;DHT22;62992;52.052;8.550;2023-02-01T18:17:39;5.20;99.90
74513;DHT22;62992;52.052;8.550;2023-02-01T18:20:25;5.20;99.90
74513;DHT22;62992;52.052;8.550;2023-02-01T18:23:14;5.20;99.90
74513;DHT22;62992;52.052;8.550;2023-02-01T18:25:59;5.20;99.90
74513;DHT22;62992;52.052;8.550;2023-02-01T18:28:44;5.10;99.90
74513;DHT22;62992;52.052;8.550;2023-02-01T18:31:31;5.10;99.90
74513;DHT22;62992;52.052;8.550;2023-02-01T18:34:15;5.20;99.90
74513;DHT22;62992;52.052;8.550;2023-02-01T18:37:04;5.10;99.90
74513;DHT22;62992;52.052;8.550;2023-02-01T18:39:49;5.10;99.90
74513;DHT22;62992;52.052;8.550;2023-02-01T18:42:33;5.10;99.90
74513;DHT22;62992;52.052;8.550;2023-02-01T18:45:34;5.10;99.90
74513;DHT22;62992;52.052;8.550;2023-02-01T18:48:18;5.10;99.90
74513;DHT22;62992;52.052;8.550;2023-02-01T18:51:05;5.20;99.90
74513;DHT22;62992;52.052;8.550;2023-02-01T18:53:50;5.20;99.90
74513;DHT22;62992;52.052;8.550;2023-02-01T18:56:34;5.10;99.90
74513;DHT22;62992;52.052;8.550;2023-02-01T18:59:18;5.10;99.90
74513;DHT22;62992;52.052;8.550;2023-02-01T19:02:02;5.10;99.90
74513;DHT22;62992;52.052;8.550;2023-02-01T19:04:47;5.00;99.90
74513;DHT22;62992;52.052;8.550;2023-02-01T19:07:31;5.00;99.90
74513;DHT22;62992;52.052;8.550;2023-02-01T19:10:18;5.10;99.90
74513;DHT22;62992;52.052;8.550;2023-02-01T19:13:04;5.20;99.90
74513;DHT22;62992;52.052;8.550;2023-02-01T19:15:48;5.20;99.90
74513;DHT22;62992;52.052;8.550;2023-02-01T19:18:32;5.10;99.90
74513;DHT22;62992;52.052;8.550;2023-02-01T19:21:16;5.10;99.90
74513;DHT22;62992;52.052;8.550;2023-02-01T19:24:01;5.10;99.90
74513;DHT22;62992;52.052;8.550;2023-02-01T19:26:45;5.10;99.90
74513;DHT22;62992;52.052;8.550;2023-02-01T19:29:29;5.20;99.90
74513;DHT22;62992;52.052;8.550;2023-02-01T19:32:14;5.20;99.90
74513;DHT22;62992;52.052;8.550;2023-02-01T19:34:58;5.30;99.90
74513;DHT22;62992;52.052;8.550;2023-02-01T19:37:42;5.40;99.90
74513;DHT22;62992;52.052;8.550;2023-02-01T19:40:26;5.40;99.90
74513;DHT22;62992;52.052;8.550;2023-02-01T19:43:11;5.60;99.90
74513;DHT22;62992;52.052;8.550;2023-02-01T19:45:55;5.50;99.90
74513;DHT22;62992;52.052;8.550;2023-02-01T19:48:40;5.50;99.90